Time;durP1;ratioP1;P1;durP2;ratioP2;P2;SDS_P1;SDS_P2;PMS_P1;PMS_P2;Temp;Humidity;BMP_temperature;BMP_pressure;BME280_temperature;BME280_humidity;BME280_pressure;Samples;Min_cycle;Max_cycle;Signal;HPM_P1;HPM_P2
2022/01/04 00:01:29;;;;;;;1.90;1.27;;;;;;;;;;5070542;28;20956;-74
2022/01/04 00:03:57;;;;;;;1.37;1.03;;;;;;;;;;5071065;28;20445;-75
2022/01/04 00:06:24;;;;;;;1.87;1.00;;;;;;;;;;5066414;28;20468;-75
2022/01/04 00:08:55;;;;;;;2.03;1.20;;;;;;;;;;5067392;28;20454;-75
2022/01/04 00:11:32;;;;;;;1.60;1.20;;;;;;;;;;5068772;28;20448;-76
2022/01/04 00:13:59;;;;;;;1.47;1.10;;;;;;;;;;5067448;28;20957;-76
2022/01/04 00:16:27;;;;;;;2.40;1.10;;;;;;;;;;5069331;28;20964;-76
2022/01/04 00:18:55;;;;;;;1.83;1.10;;;;;;;;;;5069388;28;20476;-76
2022/01/04 00:21:22;;;;;;;1.70;1.40;;;;;;;;;;5068666;28;20470;-75
2022/01/04 00:23:49;;;;;;;1.23;1.13;;;;;;;;;;5066962;28;20782;-77
2022/01/04 00:26:16;;;;;;;4.20;1.07;;;;;;;;;;5068867;28;20432;-75
2022/01/04 00:28:44;;;;;;;3.93;1.30;;;;;;;;;;5068431;28;20488;-76
2022/01/04 00:31:11;;;;;;;2.10;1.27;;;;;;;;;;5070485;28;20812;-76
2022/01/04 00:33:38;;;;;;;1.67;1.03;;;;;;;;;;5065818;28;20971;-75
2022/01/04 00:36:07;;;;;;;1.50;1.10;;;;;;;;;;5069668;28;20464;-75
2022/01/04 00:38:34;;;;;;;1.07;0.97;;;;;;;;;;5070960;28;20507;-75
2022/01/04 00:41:01;;;;;;;1.20;1.10;;;;;;;;;;5071219;28;20458;-76
2022/01/04 00:43:28;;;;;;;2.93;1.40;;;;;;;;;;5072490;28;20440;-75
2022/01/04 00:45:55;;;;;;;1.93;1.30;;;;;;;;;;5066458;28;20841;-76
2022/01/04 00:51:04;;;;;;;1.73;1.30;;;;;;;;;;5068543;28;20444;-75
2022/01/04 00:53:33;;;;;;;1.70;1.10;;;;;;;;;;5067336;28;21177;-75
2022/01/04 00:56:00;;;;;;;2.20;1.30;;;;;;;;;;5065998;28;20456;-76
2022/01/04 00:58:27;;;;;;;1.60;1.13;;;;;;;;;;5067619;28;20840;-76
2022/01/04 01:00:54;;;;;;;2.03;1.40;;;;;;;;;;5070998;28;20464;-76
2022/01/04 01:03:21;;;;;;;1.63;1.00;;;;;;;;;;5072266;28;20448;-76
2022/01/04 01:05:48;;;;;;;1.53;1.20;;;;;;;;;;5071819;28;20440;-76
2022/01/04 01:08:16;;;;;;;1.13;0.93;;;;;;;;;;5067166;28;20475;-76
2022/01/04 01:10:48;;;;;;;1.93;1.30;;;;;;;;;;5067462;28;20444;-76
2022/01/04 01:13:15;;;;;;;2.70;1.30;;;;;;;;;;5049741;28;20449;-76
2022/01/04 01:15:45;;;;;;;2.47;1.20;;;;;;;;;;5068479;28;20440;-76
2022/01/04 01:18:13;;;;;;;1.60;1.20;;;;;;;;;;5052271;28;20460;-76
2022/01/04 01:20:40;;;;;;;2.90;1.30;;;;;;;;;;5065428;28;20602;-76
2022/01/04 01:23:07;;;;;;;1.83;1.30;;;;;;;;;;5061675;28;21177;-76
2022/01/04 01:25:34;;;;;;;2.00;1.50;;;;;;;;;;5065711;28;20433;-75
2022/01/04 01:28:03;;;;;;;1.63;1.40;;;;;;;;;;5067082;28;21239;-75
2022/01/04 01:30:32;;;;;;;1.73;1.10;;;;;;;;;;5067334;28;20535;-77
2022/01/04 01:33:00;;;;;;;1.57;1.20;;;;;;;;;;5069440;28;20451;-76
2022/01/04 01:35:27;;;;;;;2.17;1.30;;;;;;;;;;5068213;28;20561;-76
2022/01/04 01:37:54;;;;;;;1.40;1.20;;;;;;;;;;5069575;28;20464;-76
2022/01/04 01:40:21;;;;;;;4.20;1.57;;;;;;;;;;5068354;28;20483;-75
2022/01/04 01:42:48;;;;;;;3.10;1.13;;;;;;;;;;5067368;28;20455;-76
2022/01/04 01:45:17;;;;;;;1.60;1.40;;;;;;;;;;5066355;28;20777;-76
2022/01/04 01:47:45;;;;;;;4.07;1.50;;;;;;;;;;5049645;28;20480;-75
2022/01/04 01:50:12;;;;;;;2.00;1.37;;;;;;;;;;5067498;28;20869;-77
2022/01/04 01:52:40;;;;;;;3.73;1.30;;;;;;;;;;5067579;28;20457;-76
2022/01/04 01:55:08;;;;;;;1.50;1.30;;;;;;;;;;5068017;28;20955;-76
2022/01/04 01:57:35;;;;;;;1.80;1.10;;;;;;;;;;5069612;28;20460;-76
2022/01/04 02:00:05;;;;;;;1.80;1.40;;;;;;;;;;5052908;28;20480;-77
2022/01/04 02:02:33;;;;;;;1.47;1.20;;;;;;;;;;5069544;28;20467;-77
2022/01/04 02:05:00;;;;;;;1.30;1.20;;;;;;;;;;5072071;28;20444;-77
2022/01/04 02:07:28;;;;;;;1.27;1.00;;;;;;;;;;5071982;28;20450;-77
2022/01/04 02:10:02;;;;;;;1.30;1.20;;;;;;;;;;5072376;28;20440;-77
2022/01/04 02:12:30;;;;;;;2.00;1.53;;;;;;;;;;5069801;28;20466;-78
2022/01/04 02:14:57;;;;;;;1.47;1.10;;;;;;;;;;5071512;28;20539;-76
2022/01/04 02:17:24;;;;;;;1.20;0.90;;;;;;;;;;5052386;28;20502;-76
2022/01/04 02:19:53;;;;;;;2.13;1.20;;;;;;;;;;5071317;28;20476;-78
2022/01/04 02:22:21;;;;;;;1.87;1.33;;;;;;;;;;5071241;28;20823;-77
2022/01/04 02:24:48;;;;;;;1.43;1.00;;;;;;;;;;5072696;28;20493;-78
2022/01/04 02:27:16;;;;;;;2.07;1.20;;;;;;;;;;5071180;28;20815;-76
2022/01/04 02:29:43;;;;;;;1.67;1.40;;;;;;;;;;5070190;28;20471;-77
2022/01/04 02:32:11;;;;;;;4.30;1.37;;;;;;;;;;5047849;28;20486;-78
2022/01/04 02:34:39;;;;;;;1.47;1.00;;;;;;;;;;5068136;28;20467;-76
2022/01/04 02:37:08;;;;;;;1.63;1.40;;;;;;;;;;5052525;28;20523;-77
2022/01/04 02:39:36;;;;;;;1.20;1.10;;;;;;;;;;5070738;28;20483;-76
2022/01/04 02:42:03;;;;;;;1.00;0.83;;;;;;;;;;5072113;28;20444;-77
2022/01/04 02:44:31;;;;;;;1.83;0.97;;;;;;;;;;5071456;28;20437;-77
2022/01/04 02:46:58;;;;;;;1.20;1.00;;;;;;;;;;5070337;28;20436;-77
2022/01/04 02:49:25;;;;;;;1.90;1.20;;;;;;;;;;5052943;28;20488;-77
2022/01/04 02:51:52;;;;;;;1.43;1.07;;;;;;;;;;5073804;28;20447;-77
2022/01/04 02:54:21;;;;;;;2.37;1.50;;;;;;;;;;5072849;28;20456;-77
2022/01/04 02:56:49;;;;;;;2.10;1.03;;;;;;;;;;5051297;28;20452;-77
2022/01/04 02:59:16;;;;;;;1.20;1.07;;;;;;;;;;5068840;28;20477;-77
2022/01/04 03:01:43;;;;;;;1.83;1.40;;;;;;;;;;5053778;28;20452;-77
2022/01/04 03:04:11;;;;;;;1.90;1.30;;;;;;;;;;5070507;28;20467;-76
2022/01/04 03:06:38;;;;;;;1.67;1.10;;;;;;;;;;5070138;28;20483;-77
2022/01/04 03:09:06;;;;;;;1.80;1.20;;;;;;;;;;5070535;28;20464;-78
2022/01/04 03:11:35;;;;;;;1.77;1.40;;;;;;;;;;5072910;28;20487;-77
2022/01/04 03:14:03;;;;;;;2.23;1.40;;;;;;;;;;5054164;28;20797;-77
2022/01/04 03:16:30;;;;;;;1.67;1.23;;;;;;;;;;5053519;28;20451;-77
2022/01/04 03:19:05;;;;;;;1.10;1.00;;;;;;;;;;5069225;28;20971;-78
2022/01/04 03:21:33;;;;;;;1.40;1.30;;;;;;;;;;5069509;28;20508;-77
2022/01/04 03:24:00;;;;;;;3.93;1.40;;;;;;;;;;5070695;28;20441;-77
2022/01/04 03:26:27;;;;;;;1.17;1.00;;;;;;;;;;5069960;28;20440;-77
2022/01/04 03:28:55;;;;;;;1.57;1.10;;;;;;;;;;5071411;28;20464;-77
2022/01/04 03:31:23;;;;;;;1.97;1.63;;;;;;;;;;5068633;28;20464;-76
2022/01/04 03:33:50;;;;;;;2.50;1.30;;;;;;;;;;5071625;28;20464;-77
2022/01/04 03:36:20;;;;;;;1.53;1.33;;;;;;;;;;5068684;28;20436;-77
2022/01/04 03:38:48;;;;;;;1.77;1.40;;;;;;;;;;5067058;28;20502;-77
2022/01/04 03:41:15;;;;;;;1.30;1.20;;;;;;;;;;5069400;28;20526;-77
2022/01/04 03:43:43;;;;;;;1.50;1.23;;;;;;;;;;5070293;28;20440;-77
2022/01/04 03:46:12;;;;;;;1.20;1.00;;;;;;;;;;5070085;28;20452;-77
2022/01/04 03:48:39;;;;;;;1.60;1.30;;;;;;;;;;5070740;28;20480;-76
2022/01/04 03:51:07;;;;;;;3.70;1.27;;;;;;;;;;5048472;28;20529;-77
2022/01/04 03:53:35;;;;;;;1.40;1.20;;;;;;;;;;5068290;28;20449;-77
2022/01/04 03:56:02;;;;;;;2.13;1.30;;;;;;;;;;5068049;28;20824;-76
2022/01/04 03:58:29;;;;;;;1.37;1.27;;;;;;;;;;5070161;28;20460;-76
2022/01/04 04:00:56;;;;;;;4.07;1.40;;;;;;;;;;5069021;28;20491;-76
2022/01/04 04:03:25;;;;;;;1.10;1.00;;;;;;;;;;5070096;28;20771;-76
2022/01/04 04:05:52;;;;;;;1.87;1.33;;;;;;;;;;5068871;28;20535;-76
2022/01/04 04:08:19;;;;;;;2.50;1.30;;;;;;;;;;5069379;28;20861;-77
2022/01/04 04:10:46;;;;;;;2.63;1.53;;;;;;;;;;5066686;28;20428;-76
2022/01/04 04:13:13;;;;;;;1.43;1.20;;;;;;;;;;5069471;28;20451;-77
2022/01/04 04:15:41;;;;;;;2.10;1.50;;;;;;;;;;5070644;28;20467;-76
2022/01/04 04:18:09;;;;;;;2.50;1.30;;;;;;;;;;5068524;28;21042;-77
2022/01/04 04:20:39;;;;;;;2.57;1.63;;;;;;;;;;5067864;28;20482;-77
2022/01/04 04:23:07;;;;;;;2.17;1.90;;;;;;;;;;5070286;28;21380;-77
2022/01/04 04:25:34;;;;;;;3.20;1.90;;;;;;;;;;5068856;28;20832;-76
2022/01/04 04:28:01;;;;;;;2.15;1.70;;;;;;;;;;5067419;28;20460;-76
2022/01/04 04:30:29;;;;;;;3.70;2.30;;;;;;;;;;5069048;28;20205;-76
2022/01/04 04:32:56;;;;;;;2.70;1.90;;;;;;;;;;5052522;28;20925;-76
2022/01/04 04:35:24;;;;;;;2.77;1.77;;;;;;;;;;5051211;28;20937;-77
2022/01/04 04:37:52;;;;;;;4.63;1.80;;;;;;;;;;5070171;28;20456;-76
2022/01/04 04:40:19;;;;;;;1.73;1.60;;;;;;;;;;5049965;28;20481;-77
2022/01/04 04:42:46;;;;;;;2.40;1.67;;;;;;;;;;5067921;28;20444;-76
2022/01/04 04:45:14;;;;;;;1.60;1.50;;;;;;;;;;5067223;28;20452;-77
2022/01/04 04:47:41;;;;;;;2.13;1.53;;;;;;;;;;5069678;28;20201;-77
2022/01/04 04:50:08;;;;;;;1.87;1.50;;;;;;;;;;5068758;28;20983;-77
2022/01/04 04:52:36;;;;;;;2.30;1.43;;;;;;;;;;5067789;28;20499;-78
2022/01/04 04:55:04;;;;;;;2.10;1.60;;;;;;;;;;5069759;28;20447;-77
2022/01/04 04:57:32;;;;;;;2.67;1.70;;;;;;;;;;5070540;28;20812;-78
2022/01/04 04:59:59;;;;;;;2.63;1.60;;;;;;;;;;5070574;28;20846;-77
2022/01/04 05:02:26;;;;;;;1.50;1.40;;;;;;;;;;5069577;28;20451;-77
2022/01/04 05:04:53;;;;;;;2.03;1.83;;;;;;;;;;5063366;28;20460;-77
2022/01/04 05:07:20;;;;;;;3.35;1.40;;;;;;;;;;5067879;28;20213;-76
2022/01/04 05:09:48;;;;;;;1.10;1.00;;;;;;;;;;5068548;28;20214;-78
2022/01/04 05:12:16;;;;;;;2.40;1.63;;;;;;;;;;5068504;28;20210;-76
2022/01/04 05:14:46;;;;;;;2.00;1.40;;;;;;;;;;5068254;28;20456;-77
2022/01/04 05:17:13;;;;;;;1.23;1.13;;;;;;;;;;5070189;28;20205;-78
2022/01/04 05:19:41;;;;;;;1.33;1.23;;;;;;;;;;5069930;28;20480;-76
2022/01/04 05:22:08;;;;;;;3.00;1.40;;;;;;;;;;5070225;28;20480;-78
2022/01/04 05:24:36;;;;;;;1.50;1.40;;;;;;;;;;5071080;28;21436;-79
2022/01/04 05:27:03;;;;;;;2.05;1.30;;;;;;;;;;5067237;28;20437;-79
2022/01/04 05:29:31;;;;;;;3.08;1.45;;;;;;;;;;5066355;28;20217;-78
2022/01/04 05:31:59;;;;;;;2.57;1.57;;;;;;;;;;5072737;28;20651;-77
2022/01/04 05:34:26;;;;;;;6.03;1.63;;;;;;;;;;5069195;28;20452;-78
2022/01/04 05:36:53;;;;;;;1.93;1.60;;;;;;;;;;5071229;28;20440;-77
2022/01/04 05:39:21;;;;;;;1.93;1.60;;;;;;;;;;5073392;28;20460;-77
2022/01/04 05:41:48;;;;;;;1.80;1.40;;;;;;;;;;5064474;28;20495;-77
2022/01/04 05:44:15;;;;;;;2.97;1.60;;;;;;;;;;5069484;28;20571;-77
2022/01/04 05:46:44;;;;;;;2.73;1.60;;;;;;;;;;5070069;28;20814;-77
2022/01/04 05:49:11;;;;;;;2.90;1.50;;;;;;;;;;5072714;28;20488;-78
2022/01/04 05:51:38;;;;;;;2.93;1.37;;;;;;;;;;5052276;28;20475;-80
2022/01/04 05:54:06;;;;;;;1.63;1.52;;;;;;;;;;5073053;28;20448;-79
2022/01/04 05:56:33;;;;;;;1.92;1.10;;;;;;;;;;5071868;28;20194;-77
2022/01/04 05:59:00;;;;;;;2.20;1.35;;;;;;;;;;5063241;28;20609;-80
2022/01/04 06:01:27;;;;;;;1.13;1.00;;;;;;;;;;5068887;28;20226;-79
2022/01/04 06:03:56;;;;;;;1.90;1.47;;;;;;;;;;5069195;28;20206;-78
2022/01/04 06:06:23;;;;;;;1.20;1.03;;;;;;;;;;5069555;28;20460;-78
2022/01/04 06:08:51;;;;;;;1.43;1.33;;;;;;;;;;5071366;28;20483;-77
2022/01/04 06:11:32;;;;;;;4.18;1.30;;;;;;;;;;5072590;28;20448;-79
2022/01/04 06:16:40;;;;;;;2.40;1.90;;;;;;;;;;5068279;28;20581;-80
2022/01/04 06:19:08;;;;;;;1.93;1.80;;;;;;;;;;5070294;28;20464;-78
2022/01/04 06:21:35;;;;;;;3.23;2.40;;;;;;;;;;5068373;28;20507;-78
2022/01/04 06:24:03;;;;;;;3.63;2.65;;;;;;;;;;5070642;28;20459;-79
2022/01/04 06:26:30;;;;;;;6.27;3.77;;;;;;;;;;5072424;28;20202;-78
2022/01/04 06:28:57;;;;;;;4.20;3.60;;;;;;;;;;5072254;28;20465;-80
2022/01/04 06:31:25;;;;;;;6.13;4.53;;;;;;;;;;5069808;28;20961;-79
2022/01/04 06:33:53;;;;;;;6.10;4.13;;;;;;;;;;5067242;28;20202;-78
2022/01/04 06:36:21;;;;;;;5.20;4.07;;;;;;;;;;5070855;28;20206;-78
2022/01/04 06:38:48;;;;;;;5.97;4.22;;;;;;;;;;5072464;28;20222;-79
2022/01/04 06:41:16;;;;;;;7.97;3.80;;;;;;;;;;5070620;28;20229;-78
2022/01/04 06:43:43;;;;;;;8.27;3.97;;;;;;;;;;5070007;28;20445;-78
2022/01/04 06:46:11;;;;;;;4.70;3.60;;;;;;;;;;5072309;28;21127;-80
2022/01/04 06:48:39;;;;;;;4.23;3.20;;;;;;;;;;5072317;28;20480;-78
2022/01/04 06:51:06;;;;;;;3.87;3.20;;;;;;;;;;5068733;28;20506;-78
2022/01/04 06:53:34;;;;;;;5.80;3.67;;;;;;;;;;5070509;28;20444;-80
2022/01/04 06:56:02;;;;;;;6.00;3.30;;;;;;;;;;5070850;28;20224;-83
2022/01/04 06:58:30;;;;;;;2.90;2.60;;;;;;;;;;5068959;28;20693;-79
2022/01/04 07:00:57;;;;;;;3.25;2.60;;;;;;;;;;5072091;28;20214;-83
2022/01/04 07:03:24;;;;;;;3.10;2.80;;;;;;;;;;5052887;28;20194;-79
2022/01/04 07:05:52;;;;;;;4.43;3.17;;;;;;;;;;5071796;28;20197;-82
2022/01/04 07:08:19;;;;;;;5.53;2.43;;;;;;;;;;5073995;28;20464;-80
2022/01/04 07:10:47;;;;;;;3.70;2.50;;;;;;;;;;5072129;28;20463;-80
2022/01/04 07:13:14;;;;;;;3.27;2.40;;;;;;;;;;5068779;28;20436;-78
2022/01/04 07:15:42;;;;;;;6.57;2.70;;;;;;;;;;5068745;28;20463;-79
2022/01/04 07:18:09;;;;;;;4.03;3.15;;;;;;;;;;5070988;28;20468;-80
2022/01/04 07:20:36;;;;;;;2.85;2.55;;;;;;;;;;5067342;28;20659;-81
2022/01/04 07:23:03;;;;;;;4.10;2.90;;;;;;;;;;5071018;28;20204;-80
2022/01/04 07:25:30;;;;;;;4.37;2.30;;;;;;;;;;5071671;28;20448;-83
2022/01/04 07:27:59;;;;;;;4.65;3.00;;;;;;;;;;5070712;28;20472;-80
2022/01/04 07:30:26;;;;;;;3.45;2.60;;;;;;;;;;5071628;28;20198;-81
2022/01/04 07:32:53;;;;;;;3.70;2.70;;;;;;;;;;5072911;28;20198;-82
2022/01/04 07:35:20;;;;;;;3.90;3.30;;;;;;;;;;5068432;28;20447;-80
2022/01/04 07:37:47;;;;;;;3.97;3.07;;;;;;;;;;5068212;28;20364;-81
2022/01/04 07:40:14;;;;;;;2.50;2.30;;;;;;;;;;5070575;28;20791;-83
2022/01/04 07:42:42;;;;;;;2.80;2.27;;;;;;;;;;5070406;28;20475;-79
2022/01/04 07:45:11;;;;;;;3.33;2.75;;;;;;;;;;5067865;28;20953;-79
2022/01/04 07:47:40;;;;;;;3.30;2.60;;;;;;;;;;5068891;28;20203;-83
2022/01/04 07:50:08;;;;;;;3.83;2.67;;;;;;;;;;5071028;28;20722;-81
2022/01/04 07:52:36;;;;;;;4.07;3.00;;;;;;;;;;5067289;28;20984;-81
2022/01/04 07:55:03;;;;;;;7.35;3.42;;;;;;;;;;5048927;28;20441;-81
2022/01/04 07:57:30;;;;;;;5.33;3.17;;;;;;;;;;5050807;28;20198;-80
2022/01/04 07:59:58;;;;;;;6.37;3.87;;;;;;;;;;5069933;28;20459;-78
2022/01/04 08:02:26;;;;;;;3.90;3.27;;;;;;;;;;5068882;28;21006;-77
2022/01/04 08:04:53;;;;;;;4.20;3.63;;;;;;;;;;5068250;28;20460;-82
2022/01/04 08:07:20;;;;;;;4.43;3.70;;;;;;;;;;5069073;28;20459;-79
2022/01/04 08:09:47;;;;;;;5.77;4.43;;;;;;;;;;5071196;28;20452;-81
2022/01/04 08:12:17;;;;;;;7.18;3.60;;;;;;;;;;5070916;28;20818;-81
2022/01/04 08:14:45;;;;;;;5.00;4.10;;;;;;;;;;5070152;28;20194;-86
2022/01/04 08:17:12;;;;;;;4.50;4.10;;;;;;;;;;5066790;28;20445;-79
2022/01/04 08:19:41;;;;;;;5.33;4.50;;;;;;;;;;5067473;28;20456;-81
2022/01/04 08:22:08;;;;;;;9.17;4.40;;;;;;;;;;5065729;28;20481;-78
2022/01/04 08:24:35;;;;;;;5.97;4.30;;;;;;;;;;5053041;28;20444;-81
2022/01/04 08:27:02;;;;;;;5.70;4.43;;;;;;;;;;5066964;28;20472;-78
2022/01/04 08:29:31;;;;;;;5.82;4.32;;;;;;;;;;5069999;28;20848;-78
2022/01/04 08:31:58;;;;;;;5.07;4.53;;;;;;;;;;5064215;28;20200;-79
2022/01/04 08:34:25;;;;;;;8.35;4.85;;;;;;;;;;5071685;28;20432;-81
2022/01/04 08:36:53;;;;;;;17.03;5.03;;;;;;;;;;5069606;28;20569;-78
2022/01/04 08:39:26;;;;;;;8.88;4.50;;;;;;;;;;5065718;28;20476;-83
2022/01/04 08:41:55;;;;;;;7.10;5.37;;;;;;;;;;5046302;28;20702;-81
2022/01/04 08:44:22;;;;;;;7.63;5.78;;;;;;;;;;5069473;28;20451;-86
2022/01/04 08:46:50;;;;;;;5.33;4.80;;;;;;;;;;5051547;28;20212;-79
2022/01/04 08:49:18;;;;;;;10.30;6.20;;;;;;;;;;5065979;28;20579;-80
2022/01/04 08:51:46;;;;;;;8.57;6.20;;;;;;;;;;5062549;28;20867;-80
2022/01/04 08:54:15;;;;;;;10.95;6.70;;;;;;;;;;5068734;28;20221;-81
2022/01/04 08:56:43;;;;;;;9.73;5.70;;;;;;;;;;5048487;28;20217;-82
2022/01/04 08:59:13;;;;;;;11.20;6.43;;;;;;;;;;5066496;28;20502;-78
2022/01/04 09:01:41;;;;;;;8.70;6.33;;;;;;;;;;5046823;28;20245;-81
2022/01/04 09:04:08;;;;;;;7.33;5.80;;;;;;;;;;5048645;28;20456;-81
2022/01/04 09:06:36;;;;;;;9.10;5.75;;;;;;;;;;5070777;28;20539;-78
2022/01/04 09:09:03;;;;;;;8.50;5.90;;;;;;;;;;5054781;28;20594;-81
2022/01/04 09:11:32;;;;;;;9.73;7.23;;;;;;;;;;5072649;28;20831;-80
2022/01/04 09:14:18;;;;;;;7.63;5.80;;;;;;;;;;5053064;28;20876;-79
2022/01/04 09:19:27;;;;;;;7.10;5.83;;;;;;;;;;5070426;28;20533;-83
2022/01/04 09:21:55;;;;;;;7.50;6.70;;;;;;;;;;5070882;28;20777;-83
2022/01/04 09:24:22;;;;;;;8.20;6.37;;;;;;;;;;5073371;28;20810;-81
2022/01/04 09:26:51;;;;;;;6.97;5.82;;;;;;;;;;5072973;28;20472;-80
2022/01/04 09:29:19;;;;;;;8.17;6.30;;;;;;;;;;5068466;28;20217;-81
2022/01/04 09:31:47;;;;;;;9.90;5.70;;;;;;;;;;5071228;28;20772;-81
2022/01/04 09:34:15;;;;;;;9.60;6.00;;;;;;;;;;5070207;28;20474;-82
2022/01/04 09:36:42;;;;;;;8.83;5.40;;;;;;;;;;5071904;28;20842;-83
2022/01/04 09:39:11;;;;;;;8.33;4.90;;;;;;;;;;5071362;28;20472;-83
2022/01/04 09:41:39;;;;;;;6.93;5.70;;;;;;;;;;5072090;28;20487;-83
2022/01/04 09:44:07;;;;;;;9.73;6.83;;;;;;;;;;5054067;28;20455;-79
2022/01/04 09:46:34;;;;;;;8.53;5.87;;;;;;;;;;5071822;28;20475;-81
2022/01/04 09:49:02;;;;;;;6.87;5.60;;;;;;;;;;5068306;28;20502;-83
2022/01/04 09:51:29;;;;;;;9.20;6.90;;;;;;;;;;5068721;28;20554;-84
2022/01/04 09:53:57;;;;;;;10.50;7.20;;;;;;;;;;5071993;28;20916;-85
2022/01/04 09:56:24;;;;;;;10.73;6.20;;;;;;;;;;5071223;28;20581;-81
2022/01/04 09:58:52;;;;;;;9.40;6.40;;;;;;;;;;5072967;28;20525;-80
2022/01/04 10:01:21;;;;;;;7.33;5.50;;;;;;;;;;5072752;28;20945;-83
2022/01/04 10:03:49;;;;;;;6.70;5.10;;;;;;;;;;5071322;28;20444;-83
2022/01/04 10:06:16;;;;;;;7.30;5.90;;;;;;;;;;5069248;28;20440;-83
2022/01/04 10:08:53;;;;;;;7.30;5.50;;;;;;;;;;5054937;28;20470;-85
2022/01/04 10:11:30;;;;;;;7.17;5.60;;;;;;;;;;5072356;28;20471;-85
2022/01/04 10:13:57;;;;;;;6.97;5.10;;;;;;;;;;5071161;28;20463;-81
2022/01/04 10:16:26;;;;;;;7.00;5.30;;;;;;;;;;5073145;28;20448;-81
2022/01/04 10:18:53;;;;;;;6.70;4.40;;;;;;;;;;5070467;28;20482;-81
2022/01/04 10:21:21;;;;;;;7.23;5.70;;;;;;;;;;5070765;28;20550;-83
2022/01/04 10:23:49;;;;;;;8.83;5.20;;;;;;;;;;5053552;28;20443;-84
2022/01/04 10:26:17;;;;;;;6.00;5.10;;;;;;;;;;5054932;28;20444;-85
2022/01/04 10:28:45;;;;;;;9.10;6.07;;;;;;;;;;5072599;28;20456;-81
2022/01/04 10:31:14;;;;;;;14.43;7.33;;;;;;;;;;5055822;28;20447;-81
2022/01/04 10:33:43;;;;;;;8.47;5.57;;;;;;;;;;5079645;28;20461;-83
2022/01/04 10:36:12;;;;;;;10.67;6.03;;;;;;;;;;5083643;28;20458;-81
2022/01/04 10:38:40;;;;;;;11.33;6.30;;;;;;;;;;5078825;28;20477;-84
2022/01/04 10:41:09;;;;;;;8.17;5.30;;;;;;;;;;5056185;28;20432;-83
2022/01/04 10:43:38;;;;;;;12.20;6.07;;;;;;;;;;5071743;28;21495;-82
2022/01/04 10:46:06;;;;;;;12.13;5.40;;;;;;;;;;5053692;28;20448;-84
2022/01/04 10:48:34;;;;;;;6.80;4.67;;;;;;;;;;5052770;28;20478;-80
2022/01/04 10:51:07;;;;;;;6.40;3.53;;;;;;;;;;5072679;28;20773;-83
2022/01/04 10:53:36;;;;;;;4.83;4.00;;;;;;;;;;5053985;28;20832;-82
2022/01/04 10:56:04;;;;;;;3.60;2.80;;;;;;;;;;5055053;28;20440;-82
2022/01/04 10:58:33;;;;;;;3.70;2.83;;;;;;;;;;5052702;28;20472;-82
2022/01/04 11:01:01;;;;;;;4.70;3.50;;;;;;;;;;5054041;28;20449;-84
2022/01/04 11:03:30;;;;;;;4.77;3.03;;;;;;;;;;5055653;28;20523;-83
2022/01/04 11:05:58;;;;;;;5.83;3.73;;;;;;;;;;5068481;28;20971;-84
2022/01/04 11:08:28;;;;;;;4.03;2.93;;;;;;;;;;5070206;28;20816;-82
2022/01/04 11:10:56;;;;;;;4.10;2.80;;;;;;;;;;5073101;28;20846;-81
2022/01/04 11:13:23;;;;;;;4.50;3.13;;;;;;;;;;5054336;28;20544;-84
2022/01/04 11:15:51;;;;;;;5.33;3.47;;;;;;;;;;5072057;28;20436;-80
2022/01/04 11:18:18;;;;;;;5.60;3.47;;;;;;;;;;5069065;28;20472;-80
2022/01/04 11:20:47;;;;;;;4.47;3.17;;;;;;;;;;5070381;28;20459;-82
2022/01/04 11:23:15;;;;;;;6.50;3.87;;;;;;;;;;5053140;28;20472;-83
2022/01/04 11:25:45;;;;;;;3.97;3.03;;;;;;;;;;5068948;28;20891;-81
2022/01/04 11:28:14;;;;;;;7.07;3.50;;;;;;;;;;5070963;28;20467;-82
2022/01/04 11:30:48;;;;;;;4.00;3.30;;;;;;;;;;5053034;28;20447;-82
2022/01/04 11:33:17;;;;;;;4.47;3.73;;;;;;;;;;5070585;28;20480;-83
2022/01/04 11:35:44;;;;;;;10.70;3.97;;;;;;;;;;5071751;28;20444;-85
2022/01/04 11:38:12;;;;;;;6.70;4.30;;;;;;;;;;5070151;28;20480;-86
2022/01/04 11:40:42;;;;;;;4.50;3.30;;;;;;;;;;5067321;28;20463;-82
2022/01/04 11:43:26;;;;;;;5.10;3.00;;;;;;;;;;5050319;28;20482;-81
2022/01/04 11:45:53;;;;;;;4.60;3.10;;;;;;;;;;5070801;28;20455;-82
2022/01/04 11:48:35;;;;;;;4.47;2.70;;;;;;;;;;5067287;28;20495;-79
2022/01/04 11:51:04;;;;;;;4.70;2.90;;;;;;;;;;5053144;28;20506;-84
2022/01/04 11:53:32;;;;;;;4.83;2.73;;;;;;;;;;5069318;28;20982;-82
2022/01/04 11:56:02;;;;;;;4.50;2.57;;;;;;;;;;5050422;28;20822;-81
2022/01/04 11:58:46;;;;;;;4.57;2.87;;;;;;;;;;5065999;28;20511;-80
2022/01/04 12:01:15;;;;;;;5.00;2.57;;;;;;;;;;5067543;28;20853;-80
2022/01/04 12:03:44;;;;;;;4.80;3.23;;;;;;;;;;5070380;28;20472;-80
2022/01/04 12:06:11;;;;;;;3.27;2.67;;;;;;;;;;5070073;28;20445;-82
2022/01/04 12:08:41;;;;;;;4.33;3.00;;;;;;;;;;5068907;28;20577;-78
2022/01/04 12:11:23;;;;;;;2.70;2.50;;;;;;;;;;5069175;28;20463;-80
2022/01/04 12:13:52;;;;;;;5.10;2.77;;;;;;;;;;5052412;28;20436;-84
2022/01/04 12:16:34;;;;;;;2.90;2.50;;;;;;;;;;5066892;28;20673;-79
2022/01/04 12:19:03;;;;;;;3.37;2.63;;;;;;;;;;5050508;28;20480;-82
2022/01/04 12:21:34;;;;;;;3.67;3.00;;;;;;;;;;5069259;28;20433;-80
2022/01/04 12:24:03;;;;;;;7.77;2.87;;;;;;;;;;5069156;28;20476;-79
2022/01/04 12:26:50;;;;;;;3.87;3.00;;;;;;;;;;5068495;28;21087;-81
2022/01/04 12:29:22;;;;;;;3.30;3.00;;;;;;;;;;5025515;28;20495;-80
2022/01/04 12:31:51;;;;;;;4.70;3.10;;;;;;;;;;5023480;28;20450;-79
2022/01/04 12:34:33;;;;;;;5.67;3.53;;;;;;;;;;5010098;28;20966;-82
2022/01/04 12:37:02;;;;;;;4.13;3.10;;;;;;;;;;5012946;28;20469;-82
2022/01/04 12:39:38;;;;;;;5.13;3.63;;;;;;;;;;5009918;28;20866;-83
2022/01/04 12:42:06;;;;;;;6.20;3.13;;;;;;;;;;5025660;28;20461;-84
2022/01/04 12:44:35;;;;;;;4.80;3.63;;;;;;;;;;5028647;28;20469;-81
2022/01/04 12:47:03;;;;;;;5.40;3.60;;;;;;;;;;5025509;28;20453;-83
2022/01/04 12:49:31;;;;;;;4.43;3.70;;;;;;;;;;5071357;28;20482;-80
2022/01/04 12:51:59;;;;;;;7.00;4.27;;;;;;;;;;5067644;28;20463;-81
2022/01/04 12:54:28;;;;;;;7.07;5.27;;;;;;;;;;5066254;28;20559;-80
2022/01/04 12:56:57;;;;;;;6.70;5.40;;;;;;;;;;5049047;28;20999;-82
2022/01/04 12:59:33;;;;;;;8.33;5.40;;;;;;;;;;5050396;28;20965;-82
2022/01/04 13:02:02;;;;;;;6.07;5.47;;;;;;;;;;5051286;28;20542;-80
2022/01/04 13:04:32;;;;;;;8.53;5.73;;;;;;;;;;5050968;28;20566;-79
2022/01/04 13:06:59;;;;;;;7.80;5.60;;;;;;;;;;5069388;28;20949;-81
2022/01/04 13:09:27;;;;;;;6.87;5.77;;;;;;;;;;5070491;28;21007;-79
2022/01/04 13:11:55;;;;;;;9.70;7.00;;;;;;;;;;5044002;28;20441;-82
2022/01/04 13:14:22;;;;;;;10.97;6.90;;;;;;;;;;5041493;28;21026;-79
2022/01/04 13:16:50;;;;;;;14.57;7.73;;;;;;;;;;5067718;28;20531;-80
2022/01/04 13:19:20;;;;;;;10.53;7.47;;;;;;;;;;5065454;28;20510;-79
2022/01/04 13:21:54;;;;;;;10.53;7.17;;;;;;;;;;5070001;28;20444;-81
2022/01/04 13:24:29;;;;;;;11.00;7.80;;;;;;;;;;5051923;28;20479;-80
2022/01/04 13:26:56;;;;;;;9.20;7.10;;;;;;;;;;5069111;28;20443;-78
2022/01/04 13:29:25;;;;;;;10.10;7.00;;;;;;;;;;5066006;28;20488;-81
2022/01/04 13:32:06;;;;;;;10.43;7.90;;;;;;;;;;5061878;28;20467;-82
2022/01/04 13:34:34;;;;;;;8.30;7.23;;;;;;;;;;5064121;28;20444;-82
2022/01/04 13:37:02;;;;;;;10.27;8.00;;;;;;;;;;5065596;28;20443;-80
2022/01/04 13:39:29;;;;;;;18.30;8.00;;;;;;;;;;5064952;28;20479;-83
2022/01/04 13:41:56;;;;;;;11.90;8.77;;;;;;;;;;5066213;28;20451;-79
2022/01/04 13:44:24;;;;;;;17.13;9.53;;;;;;;;;;5060632;28;20489;-78
2022/01/04 13:46:51;;;;;;;9.00;8.10;;;;;;;;;;5063599;28;20456;-79
2022/01/04 13:49:26;;;;;;;14.60;10.40;;;;;;;;;;5062003;28;20487;-78
2022/01/04 13:51:55;;;;;;;10.50;8.83;;;;;;;;;;5045878;28;20459;-78
2022/01/04 13:54:22;;;;;;;10.23;9.20;;;;;;;;;;5067376;28;20795;-77
2022/01/04 13:56:49;;;;;;;11.10;9.03;;;;;;;;;;5067877;28;20793;-78
2022/01/04 13:59:22;;;;;;;14.37;9.03;;;;;;;;;;5067910;28;20471;-78
2022/01/04 14:01:53;;;;;;;9.10;7.67;;;;;;;;;;5070060;28;20517;-80
2022/01/04 14:04:21;;;;;;;12.93;9.60;;;;;;;;;;5067709;28;20500;-80
2022/01/04 14:06:49;;;;;;;10.10;8.70;;;;;;;;;;5049108;28;20444;-81
2022/01/04 14:09:22;;;;;;;12.20;8.93;;;;;;;;;;5068293;28;20529;-82
2022/01/04 14:11:50;;;;;;;12.07;8.00;;;;;;;;;;5052109;28;20451;-81
2022/01/04 14:14:18;;;;;;;11.03;7.93;;;;;;;;;;5069589;28;20701;-81
2022/01/04 14:16:48;;;;;;;11.90;8.30;;;;;;;;;;5068830;28;20440;-83
2022/01/04 14:19:16;;;;;;;11.27;7.83;;;;;;;;;;5068251;28;20495;-83
2022/01/04 14:21:44;;;;;;;9.23;6.70;;;;;;;;;;5066823;28;20547;-80
2022/01/04 14:24:26;;;;;;;16.27;7.50;;;;;;;;;;5049210;28;20992;-80
2022/01/04 14:26:55;;;;;;;12.17;7.80;;;;;;;;;;5068364;28;20458;-79
2022/01/04 14:29:29;;;;;;;9.13;6.77;;;;;;;;;;5071242;28;20551;-83
2022/01/04 14:31:58;;;;;;;9.93;7.13;;;;;;;;;;5067270;28;20458;-82
2022/01/04 14:34:25;;;;;;;16.63;10.50;;;;;;;;;;5069020;28;21060;-80
2022/01/04 14:36:52;;;;;;;16.13;8.87;;;;;;;;;;5070611;28;20983;-84
2022/01/04 14:39:20;;;;;;;12.63;8.27;;;;;;;;;;5070181;28;20898;-82
2022/01/04 14:41:47;;;;;;;11.37;8.17;;;;;;;;;;5067707;28;21025;-83
2022/01/04 14:44:18;;;;;;;18.67;8.57;;;;;;;;;;5071739;28;20885;-83
2022/01/04 14:46:45;;;;;;;15.50;8.10;;;;;;;;;;5071301;28;20462;-84
2022/01/04 14:49:13;;;;;;;11.27;7.10;;;;;;;;;;5071568;28;20491;-79
2022/01/04 14:51:40;;;;;;;15.20;7.50;;;;;;;;;;5069655;28;20457;-80
2022/01/04 14:54:07;;;;;;;10.97;7.27;;;;;;;;;;5074451;28;20451;-84
2022/01/04 14:56:34;;;;;;;11.30;8.87;;;;;;;;;;5072882;28;20451;-82